createdAt,value
2023-02-22T00:02:29.182Z,18.63
2023-02-22T00:04:56.016Z,18.63
2023-02-22T00:07:23.765Z,19.20
2023-02-22T00:09:51.002Z,19.08
2023-02-22T00:12:17.750Z,17.98
2023-02-22T00:14:44.510Z,19.20
2023-02-22T00:17:13.521Z,17.80
2023-02-22T00:19:40.312Z,18.13
2023-02-22T00:22:07.012Z,19.05
2023-02-22T00:24:36.167Z,19.25
2023-02-22T00:27:03.538Z,18.35
2023-02-22T00:29:30.218Z,19.00
2023-02-22T00:31:57.044Z,18.88
2023-02-22T00:34:24.311Z,18.20
2023-02-22T00:36:51.154Z,18.20
2023-02-22T00:39:18.225Z,18.50
2023-02-22T00:41:45.059Z,19.10
2023-02-22T00:44:11.914Z,18.48
2023-02-22T00:46:39.387Z,18.73
2023-02-22T00:49:06.150Z,19.60
2023-02-22T00:51:33.975Z,19.77
2023-02-22T00:54:00.725Z,20.00
2023-02-22T00:56:27.466Z,19.92
2023-02-22T00:58:54.757Z,19.50
2023-02-22T01:01:21.466Z,19.77
2023-02-22T01:03:48.678Z,20.45
2023-02-22T01:06:16.498Z,20.85
2023-02-22T01:08:43.240Z,19.63
2023-02-22T01:11:10.313Z,20.38
2023-02-22T01:13:37.242Z,20.88
2023-02-22T01:16:03.987Z,20.05
2023-02-22T01:18:30.730Z,19.70
2023-02-22T01:20:57.482Z,19.42
2023-02-22T01:23:24.220Z,19.08
2023-02-22T01:25:50.943Z,20.52
2023-02-22T01:28:17.740Z,20.60
2023-02-22T01:30:44.570Z,21.35
2023-02-22T01:33:12.880Z,21.60
2023-02-22T01:35:42.410Z,20.55
2023-02-22T01:38:09.129Z,20.73
2023-02-22T01:40:35.877Z,20.38
2023-02-22T01:43:03.094Z,20.45
2023-02-22T01:45:30.100Z,21.25
2023-02-22T01:47:57.016Z,20.73
2023-02-22T01:50:23.733Z,20.38
2023-02-22T01:52:50.575Z,19.98
2023-02-22T01:55:17.317Z,21.70
2023-02-22T01:57:45.492Z,21.88
2023-02-22T02:00:12.236Z,21.48
2023-02-22T02:02:42.922Z,21.58
2023-02-22T02:05:09.766Z,21.55
2023-02-22T02:07:36.828Z,21.25
2023-02-22T02:10:03.516Z,22.27
2023-02-22T02:12:30.529Z,23.00
2023-02-22T02:14:57.300Z,23.33
2023-02-22T02:17:23.995Z,24.20
2023-02-22T02:19:50.820Z,24.92
2023-02-22T02:22:17.575Z,24.42
2023-02-22T02:24:44.368Z,24.70
2023-02-22T02:27:11.088Z,24.77
2023-02-22T02:29:37.788Z,25.27
2023-02-22T02:32:04.646Z,24.85
2023-02-22T02:34:31.429Z,25.83
2023-02-22T02:36:58.192Z,25.17
2023-02-22T02:39:24.896Z,26.02
2023-02-22T02:41:51.605Z,26.05
2023-02-22T02:44:22.584Z,26.30
2023-02-22T02:46:49.366Z,25.77
2023-02-22T02:49:16.176Z,26.77
2023-02-22T02:51:44.723Z,26.20
2023-02-22T02:54:11.428Z,27.02
2023-02-22T02:56:38.148Z,25.40
2023-02-22T02:59:04.855Z,26.35
2023-02-22T03:01:33.489Z,27.02
2023-02-22T03:04:00.271Z,26.05
2023-02-22T03:06:27.083Z,26.63
2023-02-22T03:08:53.894Z,25.92
2023-02-22T03:11:20.632Z,26.45
2023-02-22T03:13:47.972Z,26.42
2023-02-22T03:16:14.838Z,27.85
2023-02-22T03:18:41.880Z,27.13
2023-02-22T03:21:08.824Z,26.67
2023-02-22T03:23:35.558Z,26.98
2023-02-22T03:26:02.389Z,27.00
2023-02-22T03:28:30.837Z,27.65
2023-02-22T03:30:59.237Z,27.13
2023-02-22T03:33:28.808Z,27.00
2023-02-22T03:35:56.982Z,27.73
2023-02-22T03:38:24.001Z,27.70
2023-02-22T03:40:51.110Z,28.45
2023-02-22T03:43:18.078Z,27.92
2023-02-22T03:45:46.032Z,28.05
2023-02-22T03:48:14.835Z,29.48
2023-02-22T03:50:41.551Z,27.88
2023-02-22T03:53:08.837Z,29.33
2023-02-22T03:55:38.708Z,29.60
2023-02-22T03:58:05.475Z,28.73
2023-02-22T04:00:33.074Z,28.85
2023-02-22T04:02:59.819Z,30.25
2023-02-22T04:05:26.610Z,30.15
2023-02-22T04:07:53.337Z,30.95
2023-02-22T04:10:20.652Z,29.55
2023-02-22T04:12:47.427Z,30.98
2023-02-22T04:15:15.499Z,30.38
2023-02-22T04:17:42.680Z,31.08
2023-02-22T04:20:13.690Z,30.13
2023-02-22T04:23:02.985Z,31.35
2023-02-22T04:25:30.209Z,32.83
2023-02-22T04:27:57.842Z,32.08
2023-02-22T04:30:36.979Z,32.25
2023-02-22T04:33:07.633Z,33.53
2023-02-22T04:35:35.741Z,34.15
2023-02-22T04:38:04.333Z,33.15
2023-02-22T04:40:31.708Z,32.92
2023-02-22T04:43:00.288Z,34.30
2023-02-22T04:45:27.336Z,34.00
2023-02-22T04:47:54.814Z,32.15
2023-02-22T04:50:22.018Z,33.70
2023-02-22T04:52:48.850Z,33.72
2023-02-22T04:55:16.723Z,33.92
2023-02-22T04:57:43.909Z,35.05
2023-02-22T05:00:11.364Z,34.88
2023-02-22T05:02:38.950Z,34.05
2023-02-22T05:05:05.740Z,33.50
2023-02-22T05:07:32.457Z,35.50
2023-02-22T05:09:59.126Z,33.67
2023-02-22T05:12:25.822Z,33.65
2023-02-22T05:14:53.010Z,34.60
2023-02-22T05:17:19.714Z,33.45
2023-02-22T05:19:47.728Z,33.25
2023-02-22T05:22:14.423Z,33.00
2023-02-22T05:24:41.155Z,34.72
2023-02-22T05:27:07.883Z,35.50
2023-02-22T05:29:34.570Z,35.33
2023-02-22T05:32:02.730Z,34.25
2023-02-22T05:34:29.570Z,36.20
2023-02-22T05:36:56.312Z,36.05
2023-02-22T05:39:23.062Z,34.97
2023-02-22T05:41:49.788Z,35.53
2023-02-22T05:44:16.557Z,35.15
2023-02-22T05:46:43.295Z,35.67
2023-02-22T05:49:10.047Z,34.88
2023-02-22T05:51:36.765Z,34.22
2023-02-22T05:54:03.480Z,32.80
2023-02-22T05:56:30.653Z,34.20
2023-02-22T05:58:57.408Z,33.78
2023-02-22T06:01:24.159Z,34.88
2023-02-22T06:03:50.891Z,31.45
2023-02-22T06:06:17.570Z,33.40
2023-02-22T06:08:44.289Z,33.13
2023-02-22T06:11:10.988Z,32.90
2023-02-22T06:13:37.684Z,33.25
2023-02-22T06:16:04.477Z,32.65
2023-02-22T06:18:31.344Z,32.35
2023-02-22T06:20:58.063Z,33.25
2023-02-22T06:23:24.820Z,32.28
2023-02-22T06:25:51.562Z,32.83
2023-02-22T06:28:18.340Z,32.50
2023-02-22T06:30:45.127Z,33.40
2023-02-22T06:33:11.936Z,34.05
2023-02-22T06:35:38.656Z,32.47
2023-02-22T06:38:05.355Z,34.45
2023-02-22T06:40:32.061Z,33.22
2023-02-22T06:42:59.897Z,33.08
2023-02-22T06:45:26.711Z,33.65
2023-02-22T06:47:53.480Z,32.75
2023-02-22T06:50:20.252Z,32.65
2023-02-22T06:52:47.976Z,32.28
2023-02-22T06:55:14.683Z,31.52
2023-02-22T06:57:41.385Z,31.23
2023-02-22T07:00:08.077Z,31.85
2023-02-22T07:02:35.127Z,30.50
2023-02-22T07:05:01.816Z,31.00
2023-02-22T07:07:29.833Z,30.55
2023-02-22T07:09:56.563Z,30.70
2023-02-22T07:12:23.268Z,31.00
2023-02-22T07:14:50.045Z,29.00
2023-02-22T07:17:16.815Z,29.10
2023-02-22T07:19:43.505Z,28.85
2023-02-22T07:22:10.222Z,27.98
2023-02-22T07:24:36.996Z,29.80
2023-02-22T07:27:03.685Z,28.35
2023-02-22T07:29:31.537Z,28.25
2023-02-22T07:31:58.314Z,28.55
2023-02-22T07:34:25.022Z,29.13
2023-02-22T07:36:51.692Z,28.63
2023-02-22T07:39:18.451Z,28.83
2023-02-22T07:41:45.152Z,28.45
2023-02-22T07:44:22.182Z,27.92
2023-02-22T07:46:49.230Z,27.52
2023-02-22T07:49:15.955Z,26.88
2023-02-22T07:51:42.662Z,28.33
2023-02-22T07:54:09.372Z,27.60
2023-02-22T07:56:36.150Z,27.92
2023-02-22T07:59:02.932Z,26.52
2023-02-22T08:01:29.693Z,26.17
2023-02-22T08:03:56.521Z,25.65
2023-02-22T08:06:25.744Z,25.40
2023-02-22T08:08:52.472Z,26.30
2023-02-22T08:11:19.393Z,24.48
2023-02-22T08:13:46.290Z,24.65
2023-02-22T08:16:13.050Z,24.00
2023-02-22T08:18:41.051Z,23.45
2023-02-22T08:21:07.824Z,23.45
2023-02-22T08:23:34.593Z,22.15
2023-02-22T08:26:01.319Z,19.50
2023-02-22T08:28:28.056Z,19.50
2023-02-22T08:30:54.806Z,19.20
2023-02-22T08:33:21.847Z,19.42
2023-02-22T08:35:52.044Z,18.00
2023-02-22T08:38:18.853Z,17.13
2023-02-22T08:40:45.530Z,16.65
2023-02-22T08:43:13.566Z,16.77
2023-02-22T08:45:40.290Z,16.15
2023-02-22T08:48:07.077Z,15.40
2023-02-22T08:50:33.852Z,18.20
2023-02-22T08:53:00.620Z,15.43
2023-02-22T08:55:27.415Z,15.48
2023-02-22T08:57:54.118Z,14.88
2023-02-22T09:00:20.861Z,13.98
2023-02-22T09:02:47.602Z,13.15
2023-02-22T09:05:17.116Z,12.48
2023-02-22T09:07:43.828Z,12.50
2023-02-22T09:10:10.562Z,25.67
2023-02-22T09:12:37.394Z,32.17
2023-02-22T09:15:04.146Z,12.70
2023-02-22T09:17:30.876Z,25.30
2023-02-22T09:19:57.591Z,11.48
2023-02-22T09:22:24.295Z,9.98
2023-02-22T09:24:51.028Z,9.25
2023-02-22T09:27:20.165Z,8.73
2023-02-22T09:29:46.912Z,8.10
2023-02-22T09:32:13.796Z,8.57
2023-02-22T09:34:45.952Z,8.70
2023-02-22T09:37:12.778Z,9.15
2023-02-22T09:39:39.764Z,8.45
2023-02-22T09:42:06.488Z,8.68
2023-02-22T09:44:36.253Z,8.63
2023-02-22T09:47:03.021Z,9.35
2023-02-22T09:49:29.710Z,9.35
2023-02-22T09:51:56.434Z,9.50
2023-02-22T09:54:23.127Z,10.35
2023-02-22T09:56:50.053Z,10.15
2023-02-22T09:59:18.813Z,9.68
2023-02-22T10:01:45.610Z,10.38
2023-02-22T10:04:12.526Z,10.02
2023-02-22T10:06:39.756Z,9.52
2023-02-22T10:09:08.074Z,11.00
2023-02-22T10:11:34.831Z,10.57
2023-02-22T10:14:01.749Z,11.15
2023-02-22T10:16:28.615Z,11.13
2023-02-22T10:18:56.339Z,10.35
2023-02-22T10:21:23.718Z,11.60
2023-02-22T10:23:50.523Z,12.23
2023-02-22T10:26:17.681Z,11.90
2023-02-22T10:28:44.671Z,12.35
2023-02-22T10:31:11.492Z,12.32
2023-02-22T10:33:38.222Z,13.95
2023-02-22T10:36:04.928Z,13.20
2023-02-22T10:38:31.665Z,13.23
2023-02-22T10:40:59.261Z,13.52
2023-02-22T10:43:25.980Z,15.07
2023-02-22T10:45:53.878Z,14.88
2023-02-22T10:48:21.191Z,15.00
2023-02-22T10:50:47.975Z,14.73
2023-02-22T10:53:17.750Z,15.50
2023-02-22T10:55:44.457Z,15.25
2023-02-22T10:58:11.428Z,15.90
2023-02-22T11:00:38.236Z,16.05
2023-02-22T11:03:04.924Z,15.55
2023-02-22T11:05:31.739Z,16.05
2023-02-22T11:07:59.557Z,14.85
2023-02-22T11:10:27.409Z,16.70
2023-02-22T11:12:54.128Z,15.77
2023-02-22T11:15:22.307Z,15.60
2023-02-22T11:17:49.046Z,15.23
2023-02-22T11:20:16.244Z,15.40
2023-02-22T11:22:43.014Z,14.95
2023-02-22T11:25:09.740Z,15.45
2023-02-22T11:27:38.674Z,16.40
2023-02-22T11:30:05.871Z,14.95
2023-02-22T11:32:32.601Z,14.93
2023-02-22T11:35:08.797Z,14.10
2023-02-22T11:37:39.157Z,13.02
2023-02-22T11:40:05.938Z,12.52
2023-02-22T11:42:32.680Z,12.48
2023-02-22T11:44:59.411Z,12.25
2023-02-22T11:47:26.184Z,12.88
2023-02-22T11:49:53.658Z,16.23
2023-02-22T11:52:20.433Z,13.57
2023-02-22T11:54:47.108Z,12.85
2023-02-22T11:57:16.380Z,12.85
2023-02-22T11:59:43.091Z,13.15
2023-02-22T12:02:09.818Z,12.95
2023-02-22T12:04:36.603Z,11.82
2023-02-22T12:07:03.375Z,11.15
2023-02-22T12:09:33.162Z,11.25
2023-02-22T12:11:59.846Z,11.60
2023-02-22T12:14:26.564Z,11.35
2023-02-22T12:16:54.953Z,11.52
2023-02-22T12:19:22.213Z,11.25
2023-02-22T12:21:49.040Z,12.27
2023-02-22T12:24:16.460Z,11.52
2023-02-22T12:26:43.303Z,11.15
2023-02-22T12:29:10.098Z,10.85
2023-02-22T12:31:36.944Z,11.07
2023-02-22T12:34:03.802Z,10.38
2023-02-22T12:36:32.457Z,11.15
2023-02-22T12:38:59.231Z,11.20
2023-02-22T12:41:27.022Z,11.65
2023-02-22T12:43:53.824Z,10.73
2023-02-22T12:46:20.574Z,11.32
2023-02-22T12:48:47.304Z,10.93
2023-02-22T12:51:14.096Z,11.43
2023-02-22T12:53:40.842Z,11.10
2023-02-22T12:56:07.519Z,11.15
2023-02-22T12:58:34.282Z,10.95
2023-02-22T13:01:01.112Z,10.98
2023-02-22T13:03:28.030Z,10.80
2023-02-22T13:05:54.790Z,11.63
2023-02-22T13:08:21.495Z,11.30
2023-02-22T13:10:48.226Z,11.52
2023-02-22T13:13:15.274Z,10.98
2023-02-22T13:15:42.058Z,10.18
2023-02-22T13:18:10.575Z,10.38
2023-02-22T13:20:37.420Z,10.75
2023-02-22T13:23:04.195Z,10.65
2023-02-22T13:25:30.928Z,10.85
2023-02-22T13:27:57.613Z,10.80
2023-02-22T13:30:24.391Z,10.32
2023-02-22T13:32:51.593Z,10.27
2023-02-22T13:35:18.418Z,10.55
2023-02-22T13:37:45.932Z,11.35
2023-02-22T13:40:13.801Z,10.70
2023-02-22T13:42:42.430Z,12.50
2023-02-22T13:45:10.549Z,11.27
2023-02-22T13:47:37.293Z,11.43
2023-02-22T13:50:04.777Z,12.40
2023-02-22T13:52:31.512Z,12.30
2023-02-22T13:54:58.233Z,11.77
2023-02-22T13:57:24.945Z,11.85
2023-02-22T13:59:51.714Z,10.98
2023-02-22T14:02:19.157Z,10.23
2023-02-22T14:04:46.038Z,10.73
2023-02-22T14:07:12.805Z,10.50
2023-02-22T14:09:39.526Z,10.55
2023-02-22T14:12:06.258Z,10.85
2023-02-22T14:14:33.092Z,9.90
2023-02-22T14:16:59.844Z,9.27
2023-02-22T14:19:26.626Z,9.32
2023-02-22T14:21:53.375Z,9.90
2023-02-22T14:24:20.084Z,9.85
2023-02-22T14:26:46.814Z,30.15
2023-02-22T14:29:13.731Z,14.27
2023-02-22T14:31:40.535Z,10.82
2023-02-22T14:34:07.349Z,10.48
2023-02-22T14:36:36.943Z,10.75
2023-02-22T14:39:03.610Z,11.93
2023-02-22T14:41:30.449Z,11.32
2023-02-22T14:43:57.272Z,11.38
2023-02-22T14:46:24.179Z,11.98
2023-02-22T14:48:50.960Z,11.88
2023-02-22T14:51:21.918Z,12.23
2023-02-22T14:53:49.966Z,11.98
2023-02-22T14:56:17.700Z,12.30
2023-02-22T14:58:47.376Z,12.43
2023-02-22T15:01:14.152Z,12.32
2023-02-22T15:03:40.854Z,12.25
2023-02-22T15:06:07.755Z,15.60
2023-02-22T15:08:34.978Z,41.33
2023-02-22T15:11:02.418Z,15.95
2023-02-22T15:13:32.931Z,13.57
2023-02-22T15:16:01.917Z,11.95
2023-02-22T15:18:30.186Z,11.68
2023-02-22T15:20:57.628Z,12.52
2023-02-22T15:23:24.323Z,12.13
2023-02-22T15:25:51.168Z,11.77
2023-02-22T15:28:17.937Z,13.15
2023-02-22T15:30:44.695Z,11.55
2023-02-22T15:33:11.524Z,11.65
2023-02-22T15:35:38.284Z,10.05
2023-02-22T15:38:06.207Z,9.88
2023-02-22T15:40:35.719Z,9.82
2023-02-22T15:43:02.452Z,9.10
2023-02-22T15:45:29.271Z,9.38
2023-02-22T15:47:56.016Z,11.15
2023-02-22T15:50:23.873Z,56.63
2023-02-22T15:52:53.259Z,12.77
2023-02-22T15:55:20.002Z,10.30
2023-02-22T15:57:46.691Z,10.18
2023-02-22T16:00:13.554Z,10.15
2023-02-22T16:02:41.737Z,10.00
2023-02-22T16:05:08.541Z,9.80
2023-02-22T16:07:35.270Z,9.43
2023-02-22T16:10:09.015Z,9.85
2023-02-22T16:12:35.829Z,9.45
2023-02-22T16:15:03.120Z,9.82
2023-02-22T16:17:33.015Z,9.82
2023-02-22T16:19:59.870Z,10.02
2023-02-22T16:22:26.978Z,8.35
2023-02-22T16:24:54.581Z,7.30
2023-02-22T16:27:21.350Z,8.38
2023-02-22T16:29:48.064Z,7.72
2023-02-22T16:32:15.484Z,8.85
2023-02-22T16:34:42.400Z,7.78
2023-02-22T16:37:09.116Z,8.77
2023-02-22T16:39:36.153Z,9.68
2023-02-22T16:42:02.900Z,9.02
2023-02-22T16:44:29.614Z,8.82
2023-02-22T16:46:56.490Z,9.20
2023-02-22T16:49:23.566Z,10.40
2023-02-22T16:51:50.742Z,8.93
2023-02-22T16:54:17.479Z,8.25
2023-02-22T16:56:44.200Z,8.32
2023-02-22T16:59:10.988Z,8.38
2023-02-22T17:01:37.799Z,7.60
2023-02-22T17:04:04.710Z,8.05
2023-02-22T17:06:31.447Z,8.02
2023-02-22T17:08:58.172Z,16.92
2023-02-22T17:11:24.900Z,13.70
2023-02-22T17:13:51.962Z,12.80
2023-02-22T17:16:19.158Z,9.10
2023-02-22T17:18:46.209Z,10.30
2023-02-22T17:21:12.903Z,8.70
2023-02-22T17:23:39.928Z,8.20
2023-02-22T17:26:06.757Z,8.93
2023-02-22T17:28:33.442Z,7.70
2023-02-22T17:31:03.266Z,6.60
2023-02-22T17:33:30.199Z,7.68
2023-02-22T17:35:57.791Z,7.20
2023-02-22T17:38:24.671Z,7.50
2023-02-22T17:40:57.359Z,6.70
2023-02-22T17:43:24.209Z,6.13
2023-02-22T17:45:51.131Z,5.75
2023-02-22T17:48:17.883Z,6.32
2023-02-22T17:50:44.786Z,5.80
2023-02-22T17:53:11.479Z,6.53
2023-02-22T17:55:39.114Z,6.40
2023-02-22T17:58:05.917Z,6.15
2023-02-22T18:00:35.769Z,6.45
2023-02-22T18:03:02.497Z,6.70
2023-02-22T18:05:29.322Z,6.25
2023-02-22T18:07:56.046Z,5.85
2023-02-22T18:10:22.733Z,5.75
2023-02-22T18:12:49.631Z,6.07
2023-02-22T18:15:19.133Z,6.20
2023-02-22T18:17:45.868Z,6.32
2023-02-22T18:20:12.610Z,6.40
2023-02-22T18:22:43.198Z,6.13
2023-02-22T18:25:09.991Z,7.00
2023-02-22T18:27:36.688Z,7.00
2023-02-22T18:30:03.427Z,6.18
2023-02-22T18:32:31.963Z,7.35
2023-02-22T18:34:58.742Z,7.03
2023-02-22T18:37:28.300Z,7.45
2023-02-22T18:39:55.598Z,7.40
2023-02-22T18:42:23.459Z,6.60
2023-02-22T18:44:50.723Z,6.85
2023-02-22T18:47:17.422Z,7.32
2023-02-22T18:49:44.197Z,7.90
2023-02-22T18:52:13.924Z,8.05
2023-02-22T18:54:40.752Z,8.25
2023-02-22T18:57:07.504Z,7.40
2023-02-22T18:59:34.242Z,8.07
2023-02-22T19:02:01.853Z,7.43
2023-02-22T19:04:28.743Z,8.18
2023-02-22T19:06:55.486Z,7.90
2023-02-22T19:09:22.201Z,9.00
2023-02-22T19:11:50.886Z,8.90
2023-02-22T19:14:17.599Z,8.65
2023-02-22T19:16:46.505Z,9.15
2023-02-22T19:19:13.278Z,8.98
2023-02-22T19:21:40.044Z,9.55
2023-02-22T19:24:06.816Z,9.40
2023-02-22T19:26:33.493Z,9.93
2023-02-22T19:29:00.284Z,10.32
2023-02-22T19:31:29.747Z,10.05
2023-02-22T19:33:56.679Z,10.50
2023-02-22T19:36:23.759Z,11.52
2023-02-22T19:38:50.446Z,11.05
2023-02-22T19:41:18.300Z,11.02
2023-02-22T19:43:45.351Z,11.18
2023-02-22T19:46:12.044Z,10.77
2023-02-22T19:48:39.153Z,10.65
2023-02-22T19:51:06.322Z,10.82
2023-02-22T19:53:33.019Z,11.00
2023-02-22T19:55:59.716Z,9.73
2023-02-22T19:58:26.439Z,8.65
2023-02-22T20:00:53.111Z,8.15
2023-02-22T20:03:24.208Z,7.90
2023-02-22T20:05:51.091Z,7.18
2023-02-22T20:08:17.862Z,7.13
2023-02-22T20:10:44.855Z,7.15
2023-02-22T20:13:12.108Z,6.85
2023-02-22T20:15:39.260Z,7.75
2023-02-22T20:18:05.909Z,7.03
2023-02-22T20:20:33.546Z,7.97
2023-02-22T20:23:00.328Z,7.07
2023-02-22T20:25:27.018Z,7.47
2023-02-22T20:27:53.765Z,7.05
2023-02-22T20:30:20.439Z,5.57
2023-02-22T20:32:47.384Z,6.45
2023-02-22T20:35:15.209Z,6.40
2023-02-22T20:37:42.664Z,6.25
2023-02-22T20:40:09.394Z,5.40
2023-02-22T20:42:37.534Z,6.07
2023-02-22T20:45:06.131Z,6.22
2023-02-22T20:47:32.934Z,5.97
2023-02-22T20:49:59.680Z,6.68
2023-02-22T20:52:26.365Z,6.00
2023-02-22T20:54:53.058Z,6.32
2023-02-22T20:57:19.929Z,6.97
2023-02-22T20:59:47.650Z,6.80
2023-02-22T21:02:14.337Z,5.95
2023-02-22T21:04:41.207Z,6.57
2023-02-22T21:07:08.160Z,6.60
2023-02-22T21:09:34.960Z,6.28
2023-02-22T21:12:01.637Z,6.03
2023-02-22T21:14:29.864Z,5.97
2023-02-22T21:16:56.589Z,5.95
2023-02-22T21:19:26.263Z,6.32
2023-02-22T21:21:54.893Z,6.75
2023-02-22T21:24:21.991Z,6.50
2023-02-22T21:26:48.729Z,7.10
2023-02-22T21:29:15.637Z,6.50
2023-02-22T21:31:42.484Z,6.20
2023-02-22T21:34:12.087Z,6.60
2023-02-22T21:36:39.011Z,6.65
2023-02-22T21:39:17.907Z,6.55
2023-02-22T21:41:44.742Z,6.50
2023-02-22T21:44:11.459Z,6.70
2023-02-22T21:46:38.122Z,6.45
2023-02-22T21:49:04.847Z,6.80
2023-02-22T21:51:31.705Z,6.40
2023-02-22T21:54:01.064Z,6.53
2023-02-22T21:56:27.810Z,6.50
2023-02-22T21:58:57.974Z,6.75
2023-02-22T22:01:27.266Z,6.47
2023-02-22T22:03:53.947Z,6.53
2023-02-22T22:06:20.981Z,6.55
2023-02-22T22:08:47.698Z,6.53
2023-02-22T22:11:14.945Z,6.75
2023-02-22T22:13:41.632Z,7.55
2023-02-22T22:16:08.401Z,7.45
2023-02-22T22:18:36.163Z,7.30
2023-02-22T22:21:03.685Z,6.80
2023-02-22T22:23:30.480Z,6.82
2023-02-22T22:25:57.155Z,6.97
2023-02-22T22:28:23.924Z,7.00
2023-02-22T22:30:50.709Z,6.13
2023-02-22T22:33:17.749Z,6.90
2023-02-22T22:35:44.490Z,6.13
2023-02-22T22:38:11.355Z,6.35
2023-02-22T22:40:38.966Z,6.07
2023-02-22T22:43:06.191Z,6.10
2023-02-22T22:45:32.940Z,6.80
2023-02-22T22:47:59.701Z,5.97
2023-02-22T22:50:26.612Z,6.18
2023-02-22T22:52:55.444Z,5.97
2023-02-22T22:55:24.254Z,6.15
2023-02-22T22:57:51.922Z,6.10
2023-02-22T23:00:26.538Z,5.65
2023-02-22T23:02:56.421Z,5.70
2023-02-22T23:05:25.792Z,5.78
2023-02-22T23:07:52.469Z,6.10
2023-02-22T23:10:19.306Z,6.38
2023-02-22T23:12:46.027Z,5.78
2023-02-22T23:15:13.873Z,6.53
2023-02-22T23:17:45.670Z,5.90
2023-02-22T23:20:12.482Z,6.57
2023-02-22T23:22:39.139Z,6.68
2023-02-22T23:25:05.880Z,6.63
2023-02-22T23:27:33.084Z,6.53
2023-02-22T23:29:59.803Z,6.45
2023-02-22T23:32:29.377Z,5.82
2023-02-22T23:34:56.123Z,6.68
2023-02-22T23:37:22.817Z,6.30
2023-02-22T23:39:51.038Z,6.90
2023-02-22T23:42:17.796Z,7.28
2023-02-22T23:44:47.713Z,6.93
2023-02-22T23:47:16.093Z,7.57
2023-02-22T23:49:45.397Z,8.27
2023-02-22T23:52:16.038Z,8.95
2023-02-22T23:54:46.534Z,9.07
2023-02-22T23:57:17.264Z,8.77
2023-02-22T23:59:45.616Z,10.27
